Time;durP1;ratioP1;P1;durP2;ratioP2;P2;SDS_P1;SDS_P2;PMS_P1;PMS_P2;Temp;Humidity;BMP_temperature;BMP_pressure;BME280_temperature;BME280_humidity;BME280_pressure;Samples;Min_cycle;Max_cycle;Signal;HPM_P1;HPM_P2
2023/12/07 00:02:12;;;;;;;0.10;0.10;;;;;;;;;;5031154;28;20062;-82
2023/12/07 00:04:38;;;;;;;0.10;0.10;;;;;;;;;;5032490;28;20124;-81
2023/12/07 00:07:05;;;;;;;0.08;0.08;;;;;;;;;;5033041;28;20057;-81
2023/12/07 00:09:31;;;;;;;0.10;0.10;;;;;;;;;;5013895;28;20065;-81
2023/12/07 00:11:58;;;;;;;0.10;0.10;;;;;;;;;;5014625;28;20054;-81
2023/12/07 00:14:25;;;;;;;0.10;0.10;;;;;;;;;;5019642;28;20053;-81
2023/12/07 00:16:52;;;;;;;0.10;0.10;;;;;;;;;;5022244;28;20602;-81
2023/12/07 00:19:18;;;;;;;0.10;0.10;;;;;;;;;;5013850;28;20143;-81
2023/12/07 00:21:45;;;;;;;0.10;0.10;;;;;;;;;;5031575;28;20144;-81
2023/12/07 00:24:11;;;;;;;5.63;3.85;;;;;;;;;;5031349;28;20074;-81
2023/12/07 00:26:38;;;;;;;0.10;0.10;;;;;;;;;;5031160;28;20421;-81
2023/12/07 00:29:04;;;;;;;0.10;0.10;;;;;;;;;;5028252;28;20061;-81
2023/12/07 00:31:31;;;;;;;0.10;0.10;;;;;;;;;;5032420;28;20132;-81
2023/12/07 00:33:57;;;;;;;0.10;0.10;;;;;;;;;;5032885;28;20496;-81
2023/12/07 00:36:24;;;;;;;0.00;0.00;;;;;;;;;;5031957;28;20092;-81
2023/12/07 00:38:50;;;;;;;0.10;0.10;;;;;;;;;;5031354;28;20054;-82
2023/12/07 00:41:17;;;;;;;0.80;0.80;;;;;;;;;;5014753;28;20250;-81
2023/12/07 00:43:43;;;;;;;0.10;0.10;;;;;;;;;;5031230;28;20080;-82
2023/12/07 00:46:10;;;;;;;0.10;0.10;;;;;;;;;;5031639;28;20062;-82
2023/12/07 00:48:37;;;;;;;0.10;0.10;;;;;;;;;;5032768;28;20109;-82
2023/12/07 00:51:03;;;;;;;0.10;0.10;;;;;;;;;;5023488;28;20057;-82
2023/12/07 00:53:30;;;;;;;0.10;0.10;;;;;;;;;;5031496;28;20101;-83
2023/12/07 00:55:56;;;;;;;0.10;0.10;;;;;;;;;;5030082;28;20589;-82
2023/12/07 00:58:23;;;;;;;0.10;0.10;;;;;;;;;;5034076;28;20046;-82
2023/12/07 01:00:49;;;;;;;0.10;0.10;;;;;;;;;;5031190;28;20058;-82
2023/12/07 01:03:16;;;;;;;0.10;0.10;;;;;;;;;;5030535;28;20136;-81
2023/12/07 01:05:42;;;;;;;0.10;0.10;;;;;;;;;;5016175;28;20072;-82
2023/12/07 01:08:09;;;;;;;0.10;0.10;;;;;;;;;;5027737;28;20050;-82
2023/12/07 01:10:35;;;;;;;0.10;0.10;;;;;;;;;;5030893;28;20592;-82
2023/12/07 01:13:02;;;;;;;2.75;1.75;;;;;;;;;;5011611;28;20049;-81
2023/12/07 01:15:28;;;;;;;0.10;0.10;;;;;;;;;;5000060;28;20149;-82
2023/12/07 01:17:55;;;;;;;0.10;0.10;;;;;;;;;;5029204;28;20054;-82
2023/12/07 01:20:21;;;;;;;0.10;0.10;;;;;;;;;;5035446;28;20066;-81
2023/12/07 01:22:48;;;;;;;0.10;0.10;;;;;;;;;;5030716;28;20038;-82
2023/12/07 01:25:19;;;;;;;0.10;0.10;;;;;;;;;;5031066;28;20064;-83
2023/12/07 01:27:46;;;;;;;0.10;0.10;;;;;;;;;;5014883;28;20057;-82
2023/12/07 01:30:13;;;;;;;0.10;0.10;;;;;;;;;;5019477;28;20050;-83
2023/12/07 01:32:39;;;;;;;0.10;0.10;;;;;;;;;;5031959;28;20145;-82
2023/12/07 01:35:06;;;;;;;0.10;0.10;;;;;;;;;;5019138;28;20583;-82
2023/12/07 01:37:33;;;;;;;0.10;0.10;;;;;;;;;;5010496;28;20524;-82
2023/12/07 01:39:59;;;;;;;0.10;0.10;;;;;;;;;;5031102;28;20062;-84
2023/12/07 01:42:26;;;;;;;0.10;0.10;;;;;;;;;;5030192;28;20166;-81
2023/12/07 01:44:52;;;;;;;0.10;0.10;;;;;;;;;;5030055;28;20089;-82
2023/12/07 01:47:19;;;;;;;0.10;0.10;;;;;;;;;;5028473;28;20540;-82
2023/12/07 01:49:45;;;;;;;0.10;0.10;;;;;;;;;;5018495;28;20085;-83
2023/12/07 01:52:12;;;;;;;0.00;0.00;;;;;;;;;;5009198;28;20578;-83
2023/12/07 01:54:39;;;;;;;0.10;0.10;;;;;;;;;;5011807;28;20084;-83
2023/12/07 01:57:05;;;;;;;0.05;0.05;;;;;;;;;;5015533;28;20535;-81
2023/12/07 01:59:32;;;;;;;0.00;0.00;;;;;;;;;;5032184;28;20069;-82
2023/12/07 02:01:59;;;;;;;0.08;0.08;;;;;;;;;;5031639;28;20181;-82
2023/12/07 02:04:25;;;;;;;0.10;0.10;;;;;;;;;;5027799;28;20108;-83
2023/12/07 02:06:53;;;;;;;0.10;0.10;;;;;;;;;;5029500;28;20112;-81
2023/12/07 02:09:20;;;;;;;0.10;0.10;;;;;;;;;;5019618;28;20135;-81
2023/12/07 02:11:46;;;;;;;0.00;0.00;;;;;;;;;;5030149;28;20053;-82
2023/12/07 02:14:13;;;;;;;0.10;0.10;;;;;;;;;;5011478;28;20057;-83
2023/12/07 02:16:44;;;;;;;0.10;0.10;;;;;;;;;;5002762;28;20058;-82
2023/12/07 02:19:13;;;;;;;1.23;1.13;;;;;;;;;;5027717;28;20065;-83
2023/12/07 02:21:47;;;;;;;0.10;0.10;;;;;;;;;;5030089;28;20110;-81
2023/12/07 02:24:19;;;;;;;0.00;0.00;;;;;;;;;;5027622;28;20138;-82
2023/12/07 02:26:46;;;;;;;0.10;0.10;;;;;;;;;;5012223;28;20050;-82
2023/12/07 02:29:12;;;;;;;0.10;0.10;;;;;;;;;;5016956;28;20057;-81
2023/12/07 02:31:39;;;;;;;0.10;0.10;;;;;;;;;;5011296;28;20065;-81
2023/12/07 02:34:05;;;;;;;0.10;0.10;;;;;;;;;;5028837;28;20080;-82
2023/12/07 02:36:34;;;;;;;0.10;0.10;;;;;;;;;;5029602;28;20056;-82
2023/12/07 02:39:03;;;;;;;0.10;0.10;;;;;;;;;;5029476;28;20500;-81
2023/12/07 02:41:31;;;;;;;0.10;0.10;;;;;;;;;;5031679;28;20058;-82
2023/12/07 02:43:58;;;;;;;0.10;0.10;;;;;;;;;;5017820;28;20049;-82
2023/12/07 02:46:25;;;;;;;0.10;0.10;;;;;;;;;;5038294;28;20147;-81
2023/12/07 02:48:52;;;;;;;0.10;0.10;;;;;;;;;;5034686;28;20149;-82
2023/12/07 02:51:18;;;;;;;0.10;0.10;;;;;;;;;;5015250;28;20057;-81
2023/12/07 02:53:45;;;;;;;0.10;0.10;;;;;;;;;;5026371;28;20112;-82
2023/12/07 02:56:12;;;;;;;0.10;0.10;;;;;;;;;;5031697;28;20054;-82
2023/12/07 02:58:38;;;;;;;0.08;0.08;;;;;;;;;;5032497;28;20058;-81
2023/12/07 03:01:05;;;;;;;0.10;0.10;;;;;;;;;;5031366;28;20566;-81
2023/12/07 03:03:31;;;;;;;0.10;0.10;;;;;;;;;;5018613;28;20571;-81
2023/12/07 03:05:58;;;;;;;0.10;0.10;;;;;;;;;;5032066;28;20054;-81
2023/12/07 03:08:25;;;;;;;0.10;0.10;;;;;;;;;;5030121;28;20058;-82
2023/12/07 03:10:51;;;;;;;0.10;0.10;;;;;;;;;;5031631;28;20500;-82
2023/12/07 03:13:18;;;;;;;0.00;0.00;;;;;;;;;;5031915;28;20065;-82
2023/12/07 03:15:44;;;;;;;0.10;0.10;;;;;;;;;;5008714;28;20531;-82
2023/12/07 03:18:11;;;;;;;0.68;0.68;;;;;;;;;;5018533;28;20058;-82
2023/12/07 03:20:37;;;;;;;0.10;0.10;;;;;;;;;;5031288;28;20054;-82
2023/12/07 03:23:04;;;;;;;0.10;0.10;;;;;;;;;;5030585;28;20100;-82
2023/12/07 03:25:30;;;;;;;0.10;0.10;;;;;;;;;;5031545;28;20105;-82
2023/12/07 03:27:57;;;;;;;25.88;9.63;;;;;;;;;;5017530;28;21882;-82
2023/12/07 03:30:24;;;;;;;0.10;0.10;;;;;;;;;;5031165;28;20149;-82
2023/12/07 03:32:50;;;;;;;0.10;0.10;;;;;;;;;;5040494;28;20819;-83
2023/12/07 03:35:17;;;;;;;0.00;0.00;;;;;;;;;;5019040;28;20057;-82
2023/12/07 03:37:43;;;;;;;0.10;0.10;;;;;;;;;;5039806;28;20057;-81
2023/12/07 03:40:09;;;;;;;0.10;0.10;;;;;;;;;;5014409;28;20100;-82
2023/12/07 03:42:36;;;;;;;0.10;0.10;;;;;;;;;;5036087;28;20108;-82
2023/12/07 03:45:21;;;;;;;0.10;0.10;;;;;;;;;;5020108;28;20049;-82
2023/12/07 03:47:48;;;;;;;0.10;0.10;;;;;;;;;;5046121;28;20053;-81
2023/12/07 03:50:15;;;;;;;0.08;0.08;;;;;;;;;;5044762;28;20060;-82
2023/12/07 03:52:41;;;;;;;0.30;0.30;;;;;;;;;;5031594;28;20064;-82
2023/12/07 03:55:08;;;;;;;0.10;0.10;;;;;;;;;;5042305;28;20031;-82
2023/12/07 03:57:34;;;;;;;0.10;0.10;;;;;;;;;;5039962;28;20038;-82
2023/12/07 04:00:01;;;;;;;0.00;0.00;;;;;;;;;;5020731;28;20139;-83
2023/12/07 04:02:30;;;;;;;0.00;0.00;;;;;;;;;;5025569;28;20054;-83
2023/12/07 04:05:01;;;;;;;0.10;0.10;;;;;;;;;;5030853;28;20448;-83
2023/12/07 04:07:30;;;;;;;0.10;0.10;;;;;;;;;;5017885;28;20057;-82
2023/12/07 04:12:24;;;;;;;0.00;0.00;;;;;;;;;;4988298;28;20057;-80
2023/12/07 04:14:51;;;;;;;0.50;0.50;;;;;;;;;;4977838;28;20537;-80
2023/12/07 04:17:18;;;;;;;0.10;0.10;;;;;;;;;;4979832;28;20050;-80
2023/12/07 04:19:44;;;;;;;0.10;0.10;;;;;;;;;;4992164;28;20062;-78
2023/12/07 04:22:11;;;;;;;0.00;0.00;;;;;;;;;;4983779;28;20191;-80
2023/12/07 04:24:37;;;;;;;0.10;0.10;;;;;;;;;;4982819;28;20055;-78
2023/12/07 04:27:04;;;;;;;0.08;0.08;;;;;;;;;;4977149;28;20520;-79
2023/12/07 04:29:30;;;;;;;0.10;0.10;;;;;;;;;;4982747;28;20138;-78
2023/12/07 04:31:57;;;;;;;0.10;0.10;;;;;;;;;;4985036;28;20065;-80
2023/12/07 04:34:23;;;;;;;0.08;0.08;;;;;;;;;;4989883;28;20066;-80
2023/12/07 04:36:49;;;;;;;0.10;0.10;;;;;;;;;;4985011;28;20093;-80
2023/12/07 04:39:16;;;;;;;0.10;0.10;;;;;;;;;;4980733;28;20896;-80
2023/12/07 04:41:42;;;;;;;0.10;0.10;;;;;;;;;;4974240;28;20054;-77
2023/12/07 04:44:09;;;;;;;0.10;0.10;;;;;;;;;;4985210;28;20132;-78
2023/12/07 04:46:35;;;;;;;0.10;0.10;;;;;;;;;;4991665;28;20063;-78
2023/12/07 04:49:02;;;;;;;0.10;0.10;;;;;;;;;;4991069;28;20047;-79
2023/12/07 04:51:29;;;;;;;0.10;0.10;;;;;;;;;;4966989;28;20055;-79
2023/12/07 04:53:55;;;;;;;0.10;0.10;;;;;;;;;;4981568;28;20058;-78
2023/12/07 04:56:35;;;;;;;0.95;0.95;;;;;;;;;;4981277;28;20067;-80
2023/12/07 04:59:01;;;;;;;0.10;0.10;;;;;;;;;;4983390;28;20071;-79
2023/12/07 05:01:27;;;;;;;0.10;0.10;;;;;;;;;;4976757;28;20853;-78
2023/12/07 05:03:54;;;;;;;0.10;0.10;;;;;;;;;;4981630;28;20543;-78
2023/12/07 05:06:20;;;;;;;0.10;0.10;;;;;;;;;;4985748;28;20115;-78
2023/12/07 05:08:46;;;;;;;0.10;0.10;;;;;;;;;;4988791;28;20050;-79
2023/12/07 05:11:13;;;;;;;0.10;0.10;;;;;;;;;;4982766;28;20074;-79
2023/12/07 05:13:39;;;;;;;0.08;0.08;;;;;;;;;;4960599;28;20339;-80
2023/12/07 05:16:06;;;;;;;0.10;0.10;;;;;;;;;;4982467;28;20139;-80
2023/12/07 05:18:32;;;;;;;0.05;0.05;;;;;;;;;;4972686;28;20086;-79
2023/12/07 05:20:59;;;;;;;0.10;0.10;;;;;;;;;;4987393;28;20110;-79
2023/12/07 05:23:25;;;;;;;0.03;0.03;;;;;;;;;;4956883;28;20078;-79
2023/12/07 05:25:54;;;;;;;0.10;0.10;;;;;;;;;;4977604;28;20087;-79
2023/12/07 05:28:20;;;;;;;0.20;0.20;;;;;;;;;;4981521;28;20051;-80
2023/12/07 05:30:47;;;;;;;0.30;0.30;;;;;;;;;;4985945;28;20046;-78
2023/12/07 05:33:13;;;;;;;0.10;0.10;;;;;;;;;;4987259;28;20054;-78
2023/12/07 05:35:39;;;;;;;0.10;0.10;;;;;;;;;;4988681;28;20052;-80
2023/12/07 05:38:06;;;;;;;0.00;0.00;;;;;;;;;;4981620;28;20057;-80
2023/12/07 05:40:33;;;;;;;0.10;0.10;;;;;;;;;;4982961;28;20055;-79
2023/12/07 05:43:00;;;;;;;0.10;0.10;;;;;;;;;;4982205;28;20505;-79
2023/12/07 05:45:26;;;;;;;0.10;0.10;;;;;;;;;;4980094;28;20059;-79
2023/12/07 05:47:53;;;;;;;0.10;0.10;;;;;;;;;;4967085;28;20912;-79
2023/12/07 05:50:20;;;;;;;0.10;0.10;;;;;;;;;;4988529;28;20082;-79
2023/12/07 05:52:46;;;;;;;0.10;0.10;;;;;;;;;;4984722;28;20134;-78
2023/12/07 05:55:13;;;;;;;1.75;1.65;;;;;;;;;;4957665;28;20051;-81
2023/12/07 05:57:40;;;;;;;0.80;0.80;;;;;;;;;;4976661;28;20146;-82
2023/12/07 06:00:09;;;;;;;0.10;0.10;;;;;;;;;;4959295;28;20861;-79
2023/12/07 06:02:36;;;;;;;0.08;0.08;;;;;;;;;;4978177;28;20051;-79
2023/12/07 06:05:05;;;;;;;0.10;0.10;;;;;;;;;;4982142;28;20047;-77
2023/12/07 06:07:31;;;;;;;0.00;0.00;;;;;;;;;;4985457;28;20054;-79
2023/12/07 06:09:58;;;;;;;12.10;5.32;;;;;;;;;;4981604;28;20047;-80
2023/12/07 06:12:25;;;;;;;0.10;0.10;;;;;;;;;;4979367;28;20059;-81
2023/12/07 06:14:55;;;;;;;0.10;0.10;;;;;;;;;;4987103;28;20047;-79
2023/12/07 06:17:21;;;;;;;0.10;0.10;;;;;;;;;;4972619;28;20114;-79
2023/12/07 06:19:47;;;;;;;0.10;0.10;;;;;;;;;;4976550;28;20058;-79
2023/12/07 06:22:14;;;;;;;1.85;1.75;;;;;;;;;;4978796;28;21112;-78
2023/12/07 06:24:40;;;;;;;0.08;0.08;;;;;;;;;;4986464;28;20784;-80
2023/12/07 06:27:07;;;;;;;0.10;0.10;;;;;;;;;;4973111;28;20544;-81
2023/12/07 06:29:33;;;;;;;0.10;0.10;;;;;;;;;;4972286;28;20043;-79
2023/12/07 06:32:00;;;;;;;0.50;0.50;;;;;;;;;;4976667;28;20820;-79
2023/12/07 06:34:28;;;;;;;0.10;0.10;;;;;;;;;;4983064;28;20066;-79
2023/12/07 06:36:54;;;;;;;0.10;0.10;;;;;;;;;;4979359;28;20061;-79
2023/12/07 06:39:21;;;;;;;1.55;1.55;;;;;;;;;;4973105;28;20051;-80
2023/12/07 06:41:47;;;;;;;0.17;0.17;;;;;;;;;;4983710;28;20120;-81
2023/12/07 06:44:14;;;;;;;0.10;0.10;;;;;;;;;;4988179;28;20065;-80
2023/12/07 06:46:40;;;;;;;0.10;0.10;;;;;;;;;;4973651;28;20493;-81
2023/12/07 06:49:07;;;;;;;0.68;0.63;;;;;;;;;;4975684;28;20873;-79
2023/12/07 06:51:33;;;;;;;0.10;0.10;;;;;;;;;;4986432;28;20473;-79
2023/12/07 06:54:00;;;;;;;0.10;0.10;;;;;;;;;;4978071;28;20055;-80
2023/12/07 06:56:26;;;;;;;0.10;0.10;;;;;;;;;;4975505;28;20054;-80
2023/12/07 06:58:53;;;;;;;0.10;0.10;;;;;;;;;;4981207;28;20055;-81
2023/12/07 07:01:19;;;;;;;0.10;0.10;;;;;;;;;;4978301;28;20058;-80
2023/12/07 07:03:46;;;;;;;0.03;0.03;;;;;;;;;;4979308;28;20081;-79
2023/12/07 07:06:12;;;;;;;0.10;0.10;;;;;;;;;;4954689;28;20059;-78
2023/12/07 07:08:39;;;;;;;0.10;0.10;;;;;;;;;;4972607;28;20055;-79
2023/12/07 07:11:14;;;;;;;0.10;0.10;;;;;;;;;;4984282;28;20055;-79
2023/12/07 07:13:42;;;;;;;0.10;0.10;;;;;;;;;;4968373;28;20061;-79
2023/12/07 07:16:08;;;;;;;0.10;0.10;;;;;;;;;;4975046;28;20062;-79
2023/12/07 07:18:37;;;;;;;0.10;0.10;;;;;;;;;;4969956;28;20083;-80
2023/12/07 07:21:04;;;;;;;0.00;0.00;;;;;;;;;;4978097;28;20059;-79
2023/12/07 07:23:30;;;;;;;0.13;0.13;;;;;;;;;;4984042;28;20122;-77
2023/12/07 07:25:57;;;;;;;2.40;2.25;;;;;;;;;;4983418;28;20146;-77
2023/12/07 07:28:23;;;;;;;0.10;0.10;;;;;;;;;;4956293;28;20481;-80
2023/12/07 07:30:51;;;;;;;0.10;0.10;;;;;;;;;;4978897;28;20065;-79
2023/12/07 07:33:17;;;;;;;0.10;0.10;;;;;;;;;;4981265;28;20094;-80
2023/12/07 07:35:44;;;;;;;0.10;0.10;;;;;;;;;;4984427;28;20055;-81
2023/12/07 07:38:11;;;;;;;0.00;0.00;;;;;;;;;;4985997;28;20062;-80
2023/12/07 07:40:37;;;;;;;0.20;0.20;;;;;;;;;;4982906;28;20055;-79
2023/12/07 07:43:04;;;;;;;0.00;0.00;;;;;;;;;;4973447;28;20490;-80
2023/12/07 07:45:30;;;;;;;0.10;0.10;;;;;;;;;;4976225;28;20059;-79
2023/12/07 07:47:56;;;;;;;0.00;0.00;;;;;;;;;;4975815;28;20102;-79
2023/12/07 07:50:24;;;;;;;0.47;0.43;;;;;;;;;;4975502;28;20047;-80
2023/12/07 07:52:50;;;;;;;0.05;0.05;;;;;;;;;;4978079;28;20054;-81
2023/12/07 07:55:17;;;;;;;0.00;0.00;;;;;;;;;;4980075;28;20536;-80
2023/12/07 07:57:44;;;;;;;0.10;0.10;;;;;;;;;;4986071;28;20063;-79
2023/12/07 08:00:10;;;;;;;0.10;0.10;;;;;;;;;;4968016;28;21003;-80
2023/12/07 08:02:37;;;;;;;0.10;0.10;;;;;;;;;;4978299;28;20058;-79
2023/12/07 08:05:04;;;;;;;0.10;0.10;;;;;;;;;;4977185;28;20062;-80
2023/12/07 08:07:30;;;;;;;12.25;11.30;;;;;;;;;;4978559;28;20896;-80
2023/12/07 08:09:56;;;;;;;0.10;0.10;;;;;;;;;;4982668;28;20458;-79
2023/12/07 08:12:23;;;;;;;0.10;0.10;;;;;;;;;;4986015;28;20050;-79
2023/12/07 08:14:49;;;;;;;12.48;6.15;;;;;;;;;;4976234;28;20063;-80
2023/12/07 08:17:16;;;;;;;0.10;0.10;;;;;;;;;;4986709;28;20534;-79
2023/12/07 08:19:42;;;;;;;0.10;0.10;;;;;;;;;;4986163;28;20055;-80
2023/12/07 08:22:09;;;;;;;0.10;0.10;;;;;;;;;;4986253;28;20117;-81
2023/12/07 08:24:36;;;;;;;0.10;0.10;;;;;;;;;;4982544;28;20078;-80
2023/12/07 08:27:03;;;;;;;0.10;0.10;;;;;;;;;;4988467;28;20035;-81
2023/12/07 08:29:29;;;;;;;0.20;0.20;;;;;;;;;;4983010;28;20062;-80
2023/12/07 08:31:56;;;;;;;0.10;0.10;;;;;;;;;;4985918;28;20067;-80
2023/12/07 08:34:24;;;;;;;0.10;0.10;;;;;;;;;;4982212;28;20640;-79
2023/12/07 08:36:50;;;;;;;0.10;0.10;;;;;;;;;;4980889;28;20118;-80
2023/12/07 08:39:17;;;;;;;0.10;0.10;;;;;;;;;;4977607;28;20058;-79
2023/12/07 08:41:43;;;;;;;0.10;0.10;;;;;;;;;;4972650;28;20521;-79
2023/12/07 08:44:10;;;;;;;0.10;0.10;;;;;;;;;;4977283;28;20060;-79
2023/12/07 08:46:36;;;;;;;0.10;0.10;;;;;;;;;;4979641;28;20031;-81
2023/12/07 08:49:02;;;;;;;0.10;0.10;;;;;;;;;;4983433;28;20787;-79
2023/12/07 08:51:29;;;;;;;0.10;0.10;;;;;;;;;;4979388;28;20555;-80
2023/12/07 08:53:56;;;;;;;0.10;0.10;;;;;;;;;;4969261;28;20117;-79
2023/12/07 08:56:22;;;;;;;0.13;0.13;;;;;;;;;;4969037;28;20142;-80
2023/12/07 08:58:50;;;;;;;0.10;0.10;;;;;;;;;;4969128;28;20048;-80
2023/12/07 09:01:16;;;;;;;0.10;0.10;;;;;;;;;;4970110;28;20055;-79
2023/12/07 09:03:57;;;;;;;;;;;;;;;;;;4973161;28;20058;-80
2023/12/07 09:06:23;;;;;;;0.10;0.10;;;;;;;;;;4975269;28;47357;-79
2023/12/07 09:08:50;;;;;;;0.10;0.10;;;;;;;;;;4976651;28;20055;-79
2023/12/07 09:11:16;;;;;;;0.10;0.10;;;;;;;;;;4978497;28;20059;-80
2023/12/07 09:13:43;;;;;;;0.10;0.10;;;;;;;;;;4973932;28;20548;-80
2023/12/07 09:16:09;;;;;;;0.10;0.10;;;;;;;;;;4974308;28;20059;-79
2023/12/07 09:18:36;;;;;;;0.10;0.10;;;;;;;;;;4964161;28;20078;-80
2023/12/07 09:21:03;;;;;;;0.10;0.10;;;;;;;;;;4975143;28;21417;-80
2023/12/07 09:23:29;;;;;;;0.10;0.10;;;;;;;;;;4971864;28;20055;-79
2023/12/07 09:25:55;;;;;;;0.10;0.10;;;;;;;;;;4970791;28;20055;-79
2023/12/07 09:28:22;;;;;;;0.10;0.10;;;;;;;;;;4975367;28;20511;-80
2023/12/07 09:30:49;;;;;;;0.10;0.10;;;;;;;;;;4974324;28;20075;-79
2023/12/07 09:33:16;;;;;;;0.10;0.10;;;;;;;;;;4971036;28;20522;-79
2023/12/07 09:35:44;;;;;;;0.10;0.10;;;;;;;;;;4970991;28;20083;-79
2023/12/07 09:38:10;;;;;;;0.00;0.00;;;;;;;;;;4975285;28;20059;-78
2023/12/07 09:40:37;;;;;;;0.57;0.57;;;;;;;;;;4974583;28;20059;-79
2023/12/07 09:43:03;;;;;;;0.10;0.10;;;;;;;;;;4970039;28;20059;-79
2023/12/07 09:45:30;;;;;;;0.17;0.17;;;;;;;;;;4973367;28;20055;-78
2023/12/07 09:47:59;;;;;;;0.10;0.10;;;;;;;;;;4955217;28;20609;-79
2023/12/07 09:50:27;;;;;;;0.10;0.10;;;;;;;;;;4967843;28;20050;-79
2023/12/07 09:52:56;;;;;;;0.10;0.10;;;;;;;;;;4977805;28;20055;-79
2023/12/07 09:55:34;;;;;;;0.10;0.10;;;;;;;;;;4972038;28;20055;-79
2023/12/07 09:58:03;;;;;;;0.10;0.10;;;;;;;;;;4969464;28;20051;-79
2023/12/07 10:00:30;;;;;;;0.10;0.10;;;;;;;;;;4971016;28;20051;-78
2023/12/07 10:02:56;;;;;;;0.10;0.10;;;;;;;;;;4971428;28;20062;-79
2023/12/07 10:05:23;;;;;;;0.10;0.10;;;;;;;;;;4956602;28;20138;-78
2023/12/07 10:07:49;;;;;;;0.10;0.10;;;;;;;;;;4979374;28;20069;-79
2023/12/07 10:10:17;;;;;;;0.10;0.10;;;;;;;;;;4977587;28;20488;-79
2023/12/07 10:12:53;;;;;;;0.10;0.10;;;;;;;;;;5057500;23;20054;-80
2023/12/07 10:15:21;;;;;;;0.10;0.10;;;;;;;;;;4999302;28;20050;-83
2023/12/07 10:17:51;;;;;;;0.10;0.10;;;;;;;;;;5011081;28;20061;-80
2023/12/07 10:20:23;;;;;;;0.50;0.50;;;;;;;;;;5032437;28;20050;-80
2023/12/07 10:23:06;;;;;;;0.10;0.10;;;;;;;;;;5010148;28;20058;-83
2023/12/07 10:25:35;;;;;;;0.10;0.10;;;;;;;;;;5022955;28;20405;-81
2023/12/07 10:28:06;;;;;;;0.10;0.10;;;;;;;;;;5032266;28;20050;-82
2023/12/07 10:30:33;;;;;;;0.10;0.10;;;;;;;;;;5015588;28;20061;-83
2023/12/07 10:33:02;;;;;;;0.10;0.10;;;;;;;;;;5029841;28;20082;-81
2023/12/07 10:35:29;;;;;;;0.20;0.20;;;;;;;;;;5032653;28;20053;-80
2023/12/07 10:37:56;;;;;;;0.10;0.10;;;;;;;;;;5034294;28;20058;-80
2023/12/07 10:40:22;;;;;;;0.10;0.10;;;;;;;;;;5015172;28;20050;-80
2023/12/07 10:42:51;;;;;;;0.17;0.17;;;;;;;;;;5026920;28;20104;-78
2023/12/07 10:45:19;;;;;;;0.10;0.10;;;;;;;;;;5012654;28;20061;-80
2023/12/07 10:47:46;;;;;;;0.10;0.10;;;;;;;;;;5031164;28;20053;-81
2023/12/07 10:50:16;;;;;;;0.10;0.10;;;;;;;;;;5032189;28;20050;-79
2023/12/07 10:52:51;;;;;;;0.10;0.10;;;;;;;;;;5032543;28;20065;-80
2023/12/07 10:55:20;;;;;;;0.10;0.10;;;;;;;;;;5016495;28;20570;-77
2023/12/07 10:57:47;;;;;;;0.10;0.10;;;;;;;;;;5028069;28;20053;-80
2023/12/07 11:00:13;;;;;;;0.10;0.10;;;;;;;;;;5011050;28;20046;-77
2023/12/07 11:02:41;;;;;;;0.10;0.10;;;;;;;;;;5029087;28;20173;-78
2023/12/07 11:05:08;;;;;;;0.10;0.10;;;;;;;;;;5031829;28;20490;-77
2023/12/07 11:07:42;;;;;;;0.10;0.10;;;;;;;;;;5031915;28;20058;-82
2023/12/07 11:10:31;;;;;;;0.10;0.10;;;;;;;;;;5030959;28;20076;-78
2023/12/07 11:13:09;;;;;;;0.10;0.10;;;;;;;;;;4975868;28;20056;-79
2023/12/07 11:15:35;;;;;;;0.10;0.10;;;;;;;;;;5032749;28;20113;-80
2023/12/07 11:18:02;;;;;;;0.10;0.10;;;;;;;;;;5027156;28;20062;-79
2023/12/07 11:20:42;;;;;;;0.10;0.10;;;;;;;;;;5030980;28;20045;-79
2023/12/07 11:23:09;;;;;;;0.10;0.10;;;;;;;;;;5031882;28;20054;-78
2023/12/07 11:25:39;;;;;;;0.10;0.10;;;;;;;;;;5030725;28;20057;-81
2023/12/07 11:28:07;;;;;;;0.10;0.10;;;;;;;;;;5030897;28;20052;-80
2023/12/07 11:30:35;;;;;;;0.10;0.10;;;;;;;;;;5031539;28;20895;-78
2023/12/07 11:33:05;;;;;;;0.10;0.10;;;;;;;;;;5031740;28;20141;-78
2023/12/07 11:35:32;;;;;;;0.10;0.10;;;;;;;;;;5030339;28;20919;-79
2023/12/07 11:38:11;;;;;;;0.10;0.10;;;;;;;;;;5029453;28;20050;-80
2023/12/07 11:40:41;;;;;;;0.05;0.05;;;;;;;;;;5025798;28;20061;-79
2023/12/07 11:43:29;;;;;;;0.10;0.10;;;;;;;;;;5029220;28;20571;-79
2023/12/07 11:45:55;;;;;;;0.10;0.10;;;;;;;;;;5014263;28;20144;-78
2023/12/07 11:48:22;;;;;;;0.10;0.10;;;;;;;;;;5031114;28;20046;-78
2023/12/07 11:50:56;;;;;;;0.10;0.10;;;;;;;;;;5032815;28;21238;-79
2023/12/07 11:53:23;;;;;;;0.10;0.10;;;;;;;;;;5031859;28;20719;-81
2023/12/07 11:55:52;;;;;;;0.10;0.10;;;;;;;;;;5029299;28;20081;-81
2023/12/07 11:58:18;;;;;;;0.10;0.10;;;;;;;;;;5031072;28;20061;-79
2023/12/07 12:00:48;;;;;;;0.30;0.30;;;;;;;;;;5013337;28;20050;-80
2023/12/07 12:03:15;;;;;;;0.10;0.10;;;;;;;;;;5029201;28;20265;-78
2023/12/07 12:05:45;;;;;;;1.25;1.23;;;;;;;;;;5028899;28;20060;-77
2023/12/07 12:08:11;;;;;;;0.10;0.10;;;;;;;;;;5025861;28;20148;-77
2023/12/07 12:10:40;;;;;;;0.10;0.10;;;;;;;;;;5012445;28;20057;-78
2023/12/07 12:13:06;;;;;;;0.10;0.10;;;;;;;;;;5011197;28;20046;-80
2023/12/07 12:15:33;;;;;;;0.10;0.10;;;;;;;;;;5012176;28;20054;-79
2023/12/07 12:18:00;;;;;;;0.10;0.10;;;;;;;;;;5021721;28;20530;-78
2023/12/07 12:20:27;;;;;;;0.10;0.10;;;;;;;;;;5027393;28;20561;-78
2023/12/07 12:22:54;;;;;;;0.10;0.10;;;;;;;;;;5022812;28;20588;-78
2023/12/07 12:25:25;;;;;;;0.10;0.10;;;;;;;;;;5029552;28;20053;-78
2023/12/07 12:27:55;;;;;;;0.10;0.10;;;;;;;;;;5028642;28;20601;-78
2023/12/07 12:30:22;;;;;;;0.10;0.10;;;;;;;;;;5028365;28;20512;-78
2023/12/07 12:32:50;;;;;;;0.10;0.10;;;;;;;;;;5030416;28;20732;-79
2023/12/07 12:35:17;;;;;;;0.10;0.10;;;;;;;;;;5028703;28;20092;-78
2023/12/07 12:37:44;;;;;;;0.10;0.10;;;;;;;;;;5011008;28;20062;-80
2023/12/07 12:40:11;;;;;;;0.10;0.10;;;;;;;;;;5029510;28;20124;-79
2023/12/07 12:42:37;;;;;;;0.10;0.10;;;;;;;;;;5030819;28;20054;-81
2023/12/07 12:45:05;;;;;;;0.10;0.10;;;;;;;;;;5031111;28;20054;-79
2023/12/07 12:47:33;;;;;;;1.67;1.58;;;;;;;;;;5012336;28;20088;-80
2023/12/07 12:50:00;;;;;;;0.10;0.10;;;;;;;;;;5031796;28;20086;-79
2023/12/07 12:52:28;;;;;;;0.10;0.10;;;;;;;;;;5019315;28;20479;-80
2023/12/07 12:54:58;;;;;;;0.10;0.10;;;;;;;;;;5011152;28;20049;-80
2023/12/07 12:57:24;;;;;;;0.10;0.10;;;;;;;;;;5026705;28;20064;-77
2023/12/07 12:59:51;;;;;;;0.10;0.10;;;;;;;;;;5027855;28;20531;-79
2023/12/07 13:02:18;;;;;;;0.10;0.10;;;;;;;;;;5003150;28;20113;-78
2023/12/07 13:04:45;;;;;;;0.10;0.10;;;;;;;;;;5027471;28;20061;-77
2023/12/07 13:07:14;;;;;;;0.08;0.08;;;;;;;;;;5010855;28;20056;-78
2023/12/07 13:09:40;;;;;;;0.10;0.10;;;;;;;;;;5027349;28;20058;-78
2023/12/07 13:12:07;;;;;;;0.10;0.10;;;;;;;;;;5017699;28;20058;-81
2023/12/07 13:14:43;;;;;;;0.10;0.10;;;;;;;;;;5028450;28;20046;-78
2023/12/07 13:17:18;;;;;;;2.40;2.20;;;;;;;;;;5019173;28;20049;-77
2023/12/07 13:19:49;;;;;;;0.10;0.10;;;;;;;;;;5028409;28;20176;-77
2023/12/07 13:22:16;;;;;;;0.20;0.20;;;;;;;;;;5027486;28;20080;-76
2023/12/07 13:24:42;;;;;;;0.10;0.10;;;;;;;;;;5024492;28;20622;-77
2023/12/07 13:27:09;;;;;;;0.20;0.20;;;;;;;;;;5026240;28;20045;-78
2023/12/07 13:29:35;;;;;;;0.10;0.10;;;;;;;;;;5028246;28;20097;-78
2023/12/07 13:32:03;;;;;;;0.10;0.10;;;;;;;;;;5027860;28;20058;-77
2023/12/07 13:34:29;;;;;;;0.10;0.10;;;;;;;;;;5010559;28;20057;-77
2023/12/07 13:36:56;;;;;;;0.57;0.57;;;;;;;;;;5029038;28;20089;-78
2023/12/07 13:39:22;;;;;;;0.10;0.10;;;;;;;;;;5029750;28;20061;-78
2023/12/07 13:41:56;;;;;;;0.10;0.10;;;;;;;;;;5029945;28;20057;-78
2023/12/07 13:44:26;;;;;;;0.10;0.10;;;;;;;;;;5030451;28;20140;-81
2023/12/07 13:46:54;;;;;;;;;;;;;;;;;;5026881;28;20050;-79
2023/12/07 13:49:21;;;;;;;0.10;0.10;;;;;;;;;;5027203;28;40810;-79
2023/12/07 13:51:59;;;;;;;0.10;0.10;;;;;;;;;;5012552;28;20053;-77
2023/12/07 13:54:32;;;;;;;0.10;0.10;;;;;;;;;;5023839;28;20149;-77
2023/12/07 13:57:19;;;;;;;0.10;0.10;;;;;;;;;;5028015;28;20219;-80
2023/12/07 13:59:46;;;;;;;0.10;0.10;;;;;;;;;;5025748;28;20057;-79
2023/12/07 14:02:12;;;;;;;0.10;0.10;;;;;;;;;;5011041;28;20151;-82
2023/12/07 14:04:39;;;;;;;0.10;0.10;;;;;;;;;;5032202;28;20089;-80
2023/12/07 14:07:09;;;;;;;0.10;0.10;;;;;;;;;;5028612;28;20080;-79
2023/12/07 14:09:36;;;;;;;0.10;0.10;;;;;;;;;;5028690;28;20800;-79
2023/12/07 14:12:14;;;;;;;0.10;0.10;;;;;;;;;;5024040;28;20057;-80
2023/12/07 14:14:41;;;;;;;0.10;0.10;;;;;;;;;;5023857;28;20141;-78
2023/12/07 14:17:07;;;;;;;0.30;0.30;;;;;;;;;;5027404;28;20089;-78
2023/12/07 14:19:38;;;;;;;0.10;0.10;;;;;;;;;;5024627;28;20058;-80
2023/12/07 14:22:05;;;;;;;0.20;0.20;;;;;;;;;;5020283;28;20526;-77
2023/12/07 14:24:32;;;;;;;0.30;0.30;;;;;;;;;;5029186;28;20061;-77
2023/12/07 14:26:58;;;;;;;0.10;0.10;;;;;;;;;;5027925;28;20128;-78
2023/12/07 14:29:25;;;;;;;0.10;0.10;;;;;;;;;;5033776;28;20168;-78
2023/12/07 14:31:53;;;;;;;0.10;0.10;;;;;;;;;;5024421;28;20148;-81
2023/12/07 14:34:20;;;;;;;0.10;0.10;;;;;;;;;;5033283;28;20153;-81
2023/12/07 14:36:59;;;;;;;0.20;0.20;;;;;;;;;;5026219;28;20057;-78
2023/12/07 14:39:26;;;;;;;0.32;0.32;;;;;;;;;;5033189;28;20054;-79
2023/12/07 14:41:55;;;;;;;0.10;0.10;;;;;;;;;;5013193;28;20588;-79
2023/12/07 14:44:22;;;;;;;4.80;2.45;;;;;;;;;;5041848;28;20145;-81
2023/12/07 14:46:55;;;;;;;0.10;0.10;;;;;;;;;;5030337;28;20601;-79
2023/12/07 14:49:22;;;;;;;1.75;1.65;;;;;;;;;;5028219;28;20060;-80